Flight Track Log - Related Links

Times and Time Zones

All times are in EDT time to prevent confusion due to time zone crossing. See the G-BNLX flight status page for this flight to view local times or setup timezone preferences in your user account.

Time Position Orientation Groundspeed Altitude Reporting Facility
EDT Latitude Longitude Course Direction KTS MPH feet Rate Location/Type
Tue 06:26:00 PM 25.7853 -80.3242 283° West 184 212 700  Level Miami Center
Tue 06:27:16 PM 25.7994 -80.3914 283° West 200 230 2,000 1,224 Climbing Miami Center
Tue 06:27:38 PM 25.8097 -80.4325 286° West 260 299 2,700 1,839 Climbing Miami Center
Tue 06:28:18 PM 25.8189 -80.4686 286° West 244 281 3,900 2,754 Climbing Miami Center
Tue 06:28:39 PM 25.8492 -80.5028 315° West 280 322 5,500 3,290 Climbing Miami Center
Tue 06:29:20 PM 25.9028 -80.4919 10° North 312 359 7,300 2,509 Climbing Miami Center
Tue 06:29:34 PM 25.9261 -80.4811 23° Northeast 326 375 7,800 1,935 Climbing Miami Center
Tue 06:30:22 PM 25.9758 -80.4356 39° Northeast 345 397 9,300 2,164 Climbing Miami Center
Tue 06:30:35 PM 25.9833 -80.4067 74° East 359 413 10,000 1,548 Climbing Miami Center
Tue 06:31:24 PM 25.9931 -80.3247 82° East 363 418 10,900 1,459 Climbing Miami Center
Tue 06:32:26 PM 25.9981 -80.1992 87° East 399 459 12,700 1,887 Climbing Miami Center
Tue 06:33:28 PM 26.0019 -80.0689 88° East 418 481 14,800 1,951 Climbing Miami Center
Tue 06:34:29 PM 26.0083 -79.9375 87° East 421 484 16,700 1,707 Climbing Miami Center
Tue 06:35:31 PM 26.0172 -79.8019 86° East 436 502 18,300 1,597 Climbing Miami Center
Tue 06:36:33 PM 26.1092 -79.6739 51° Northeast 446 513 20,000 1,548 Climbing Miami Center
Tue 06:37:35 PM 26.2044 -79.5789 42° Northeast 458 527 21,500 1,403 Climbing Miami Center
Tue 06:38:37 PM 26.3019 -79.4825 42° Northeast 464 534 22,900 1,140 Climbing Miami Center
Tue 06:43:54 PM 26.8636 -78.9218 42° Northeast 537 618 28,700 1,082 Climbing FlightAware ADS-B
Tue 06:45:05 PM 27.0025 -78.7809 42° Northeast 547 629 29,900 1,018 Climbing FlightAware ADS-B
Tue 06:45:46 PM 27.0805 -78.7026 42° Northeast 549 632 30,600 1,268 Climbing FlightAware ADS-B
Tue 06:46:16 PM 27.1375 -78.6455 42° Northeast 547 629 31,400 1,500 Climbing FlightAware ADS-B
Tue 06:46:46 PM 27.1929 -78.5884 42° Northeast 542 624 32,100 1,300 Climbing FlightAware ADS-B
Tue 06:47:16 PM 27.2502 -78.5302 42° Northeast 541 623 32,700 1,059 Climbing FlightAware ADS-B
Tue 06:47:54 PM 27.3208 -78.4602 42° Northeast 543 625 33,300 796 Climbing FlightAware ADS-B
Tue 06:48:54 PM 27.4206 -78.3572 45° Northeast 543 625 34,000 344 Climbing Miami Center
Tue 06:49:56 PM 27.5106 -78.2647 42° Northeast 544 626 34,000  Level Miami Center
Tue 06:50:58 PM 27.6453 -78.1267 42° Northeast 547 629 34,000  Level Miami Center
Tue 06:52:00 PM 27.7569 -78.0125 42° Northeast 544 626 34,000  Level Miami Center
Tue 06:53:01 PM 27.8667 -77.9000 42° Northeast 537 618 34,000  Level Miami Center
Tue 06:54:00 PM 27.9684 -77.7857 45° Northeast  Level FlightAware Approximate
Tue 06:54:03 PM 27.9975 -77.7653 42° Northeast 534 615 34,000  Level Miami Center
Tue 06:55:05 PM 28.1067 -77.6519 42° Northeast 534 615 34,000  Level Miami Center
Tue 06:56:06 PM 28.1928 -77.5114 55° Northeast 541 623 34,000  Level Miami Center
Tue 06:57:08 PM 28.2731 -77.3639 58° Northeast 546 628 34,000  Level Miami Center
Tue 06:58:10 PM 28.3539 -77.2150 58° Northeast 551 634 34,000  Level Miami Center
Tue 06:59:11 PM 28.4344 -77.0681 58° Northeast 551 634 34,000  Level Miami Center
Tue 07:00:13 PM 28.5161 -76.9183 58° Northeast 552 635 34,000  Level Miami Center
Tue 07:00:31 PM 28.7167 -76.5667 50° Northeast 527 606 34,000  Level New York Oceanic (ODAPS)
Tue 07:01:15 PM 28.6125 -76.7389 50° Northeast 553 636 34,000  Level Miami Center
Tue 07:02:17 PM 28.6944 -76.5906 58° Northeast 553 636 34,000  Level Miami Center
Tue 07:03:18 PM 28.7833 -76.4519 54° Northeast 550 633 34,000  Level Miami Center
Tue 07:04:20 PM 28.8814 -76.3244 49° Northeast 548 631 34,000  Level Miami Center
Tue 07:24:56 PM 30.5833 -73.9500 51° Northeast 533 613 34,000  Level New York Oceanic (ODAPS)
Tue 07:39:44 PM 32.0500 -71.7833 52° Northeast 535 616 34,000  Level New York Oceanic (ODAPS)
Tue 07:53:46 PM 33.3000 -69.8167 53° Northeast 541 623 34,000  Level New York Oceanic (ODAPS)
Tue 07:54:00 PM 33.4819 -69.5229 54° Northeast 535 616 34,000  Level FlightAware Transoceanic
Tue 07:55:00 PM 33.5726 -69.3756 54° Northeast 535 616 34,000  Level FlightAware Transoceanic
Tue 07:56:00 PM 33.6631 -69.2280 54° Northeast 535 616 34,000  Level FlightAware Transoceanic
Tue 07:57:00 PM 33.7534 -69.0800 54° Northeast 535 616 34,000  Level FlightAware Transoceanic
Tue 07:58:00 PM 33.8436 -68.9318 54° Northeast 535 616 34,000  Level FlightAware Transoceanic
Tue 07:59:00 PM 33.9336 -68.7832 54° Northeast 535 616 34,000  Level FlightAware Transoceanic
Tue 08:00:00 PM 34.1000 -68.5068 54° Northeast 541 623 34,000  Level FlightAware Transoceanic
Tue 08:01:00 PM 34.1880 -68.3597 54° Northeast 541 623 34,000  Level FlightAware Transoceanic
Tue 08:02:00 PM 34.2759 -68.2123 54° Northeast 541 623 34,000  Level FlightAware Transoceanic
Tue 08:03:00 PM 34.3636 -68.0647 54° Northeast 541 623 34,000  Level FlightAware Transoceanic
Tue 08:04:00 PM 34.4511 -67.9167 54° Northeast 541 623 34,000  Level FlightAware Transoceanic
Tue 08:05:00 PM 34.5384 -67.7684 54° Northeast 541 623 34,000  Level FlightAware Transoceanic
Tue 08:06:00 PM 34.6255 -67.6198 55° Northeast 541 623 34,000  Level FlightAware Transoceanic
Tue 08:07:00 PM 34.7125 -67.4709 55° Northeast 541 623 34,000  Level FlightAware Transoceanic
Tue 08:08:00 PM 34.7993 -67.3216 55° Northeast 541 623 34,000  Level FlightAware Transoceanic
Tue 08:09:00 PM 34.8859 -67.1721 55° Northeast 541 623 34,000  Level FlightAware Transoceanic
Tue 08:10:00 PM 34.9723 -67.0222 55° Northeast 541 623 34,000  Level FlightAware Transoceanic
Tue 08:11:00 PM 35.0585 -66.8721 55° Northeast 541 623 34,000  Level FlightAware Transoceanic
Tue 08:12:00 PM 35.1446 -66.7216 55° Northeast 541 623 34,000  Level FlightAware Transoceanic
Tue 08:13:00 PM 35.2304 -66.5708 55° Northeast 541 623 34,000  Level FlightAware Transoceanic
Tue 08:14:00 PM 35.3161 -66.4196 55° Northeast 541 623 34,000  Level FlightAware Transoceanic
Tue 08:15:00 PM 35.4016 -66.2682 55° Northeast 541 623 34,000  Level FlightAware Transoceanic
Tue 08:16:00 PM 35.4869 -66.1164 55° Northeast 541 623 34,000  Level FlightAware Transoceanic
Tue 08:17:00 PM 35.5720 -65.9643 56° Northeast 541 623 34,000  Level FlightAware Transoceanic
Tue 08:18:00 PM 35.6569 -65.8119 56° Northeast 541 623 34,000  Level FlightAware Transoceanic
Tue 08:19:00 PM 35.7416 -65.6592 56° Northeast 541 623 34,000  Level FlightAware Transoceanic
Tue 08:20:00 PM 35.8261 -65.5061 56° Northeast 541 623 34,000  Level FlightAware Transoceanic
Tue 08:21:00 PM 35.9104 -65.3527 56° Northeast 541 623 34,000  Level FlightAware Transoceanic
Tue 08:22:00 PM 35.9946 -65.1990 56° Northeast 541 623 34,000  Level FlightAware Transoceanic
Tue 08:23:00 PM 36.0785 -65.0449 56° Northeast 541 623 34,000  Level FlightAware Transoceanic
Tue 08:24:00 PM 36.1622 -64.8906 56° Northeast 541 623 34,000  Level FlightAware Transoceanic
Tue 08:25:00 PM 36.2458 -64.7359 56° Northeast 541 623 34,000  Level FlightAware Transoceanic
Tue 08:26:00 PM 36.3291 -64.5808 56° Northeast 541 623 34,000  Level FlightAware Transoceanic
Tue 08:27:00 PM 36.4123 -64.4255 56° Northeast 541 623 34,000  Level FlightAware Transoceanic
Tue 08:28:00 PM 36.4952 -64.2698 57° Northeast 541 623 34,000  Level FlightAware Transoceanic
Tue 08:29:00 PM 36.5779 -64.1137 57° Northeast 541 623 34,000  Level FlightAware Transoceanic
Tue 08:30:00 PM 36.6605 -63.9574 57° Northeast 541 623 34,000  Level FlightAware Transoceanic
Tue 08:31:00 PM 36.7428 -63.8007 57° Northeast 541 623 34,000  Level FlightAware Transoceanic
Tue 08:32:00 PM 36.8249 -63.6436 57° Northeast 541 623 34,000  Level FlightAware Transoceanic
Tue 08:33:00 PM 36.9068 -63.4862 57° Northeast 541 623 34,000  Level FlightAware Transoceanic
Tue 08:34:00 PM 36.9885 -63.3285 57° Northeast 541 623 34,000  Level FlightAware Transoceanic
Tue 08:35:00 PM 37.0700 -63.1705 57° Northeast 541 623 34,000  Level FlightAware Transoceanic
Tue 08:36:00 PM 37.1513 -63.0121 57° Northeast 541 623 34,000  Level FlightAware Transoceanic
Tue 08:37:00 PM 37.2324 -62.8534 57° Northeast 541 623 34,000  Level FlightAware Transoceanic
Tue 08:38:00 PM 37.3133 -62.6943 57° Northeast 541 623 34,000  Level FlightAware Transoceanic
Tue 08:39:00 PM 37.3939 -62.5349 58° Northeast 541 623 34,000  Level FlightAware Transoceanic
Tue 08:40:00 PM 37.4743 -62.3751 58° Northeast 541 623 34,000  Level FlightAware Transoceanic
Tue 08:41:00 PM 37.5546 -62.2150 58° Northeast 541 623 34,000  Level FlightAware Transoceanic
Tue 08:42:00 PM 37.6346 -62.0546 58° Northeast 541 623 34,000  Level FlightAware Transoceanic
Tue 08:43:00 PM 37.7144 -61.8938 58° Northeast 541 623 34,000  Level FlightAware Transoceanic
Tue 08:44:00 PM 37.7939 -61.7326 58° Northeast 541 623 34,000  Level FlightAware Transoceanic
Tue 08:45:00 PM 37.8733 -61.5711 58° Northeast 541 623 34,000  Level FlightAware Transoceanic
Tue 08:46:00 PM 37.9524 -61.4093 58° Northeast 541 623 34,000  Level FlightAware Transoceanic
Tue 08:47:00 PM 38.0313 -61.2471 58° Northeast 541 623 34,000  Level FlightAware Transoceanic
Tue 08:48:00 PM 38.1100 -61.0846 58° Northeast 541 623 34,000  Level FlightAware Transoceanic
Tue 08:49:00 PM 38.1884 -60.9217 59° Northeast 541 623 34,000  Level FlightAware Transoceanic
Tue 08:50:00 PM 38.2667 -60.7585 59° Northeast 541 623 34,000  Level FlightAware Transoceanic
Tue 08:51:00 PM 38.3447 -60.5949 59° Northeast 541 623 34,000  Level FlightAware Transoceanic
Tue 08:52:00 PM 38.4225 -60.4310 59° Northeast 541 623 34,000  Level FlightAware Transoceanic
Tue 08:53:00 PM 38.5000 -60.2667 57° Northeast 541 623 34,000  Level FlightAware Transoceanic
Tue 08:54:00 PM 38.5880 -60.0953 57° Northeast 541 623 34,000  Level FlightAware Transoceanic
Tue 08:55:00 PM 38.6757 -59.9236 57° Northeast 541 623 34,000  Level FlightAware Transoceanic
Tue 08:55:05 PM 38.5000 -60.2667 57° Northeast 578 665 34,000  Level New York Oceanic (ODAPS)
Tue 09:51:03 PM 43.0000 -50.0000 71° East 612 704 34,000  Level New York Oceanic (ODAPS)
Tue 10:22:00 PM 43.0000 -50.0000 71° East 610 702 34,000  Level ETMS Enhanced Traffic Management System
Tue 10:34:00 PM 45.0000 -40.0000 70° East 590 679 34,000  Level ETMS Enhanced Traffic Management System
Tue 11:19:14 PM 47.0000 -30.0000 70° East 523 602 34,000  Level ETMS Enhanced Traffic Management System
Tue 11:20:00 PM 47.1665 -29.4478 66° East  Level Estimated
Tue 11:21:00 PM 47.2214 -29.2629 66° East  Level Estimated
Tue 11:22:00 PM 47.2761 -29.0777 66° East  Level Estimated
Tue 11:23:00 PM 47.3304 -28.8921 67° East  Level Estimated
Tue 11:24:00 PM 47.3844 -28.7061 67° East  Level Estimated
Tue 11:25:00 PM 47.3177 -28.9354 66° East  Level Estimated
Tue 11:26:00 PM 47.3718 -28.7495 67° East  Level Estimated
Tue 11:27:00 PM 47.4256 -28.5632 67° East  Level Estimated
Tue 11:28:00 PM 47.4791 -28.3766 67° East  Level Estimated
Tue 11:29:00 PM 47.5323 -28.1895 67° East  Level Estimated
Tue 11:30:00 PM 47.5852 -28.0021 67° East  Level Estimated
Tue 11:31:00 PM 47.6377 -27.8143 67° East  Level Estimated
Tue 11:32:00 PM 47.6900 -27.6261 68° East  Level Estimated
Tue 11:33:00 PM 47.7419 -27.4376 68° East  Level Estimated
Tue 11:34:00 PM 47.7936 -27.2486 68° East  Level Estimated
Tue 11:35:00 PM 47.8449 -27.0593 68° East  Level Estimated
Tue 11:36:00 PM 47.8960 -26.8697 68° East  Level Estimated
Tue 11:37:00 PM 47.9467 -26.6796 68° East  Level Estimated
Tue 11:38:00 PM 47.9971 -26.4892 68° East  Level Estimated
Tue 11:39:00 PM 48.0471 -26.2984 69° East  Level Estimated
Tue 11:40:00 PM 48.0969 -26.1072 69° East  Level Estimated
Tue 11:41:00 PM 48.1464 -25.9157 69° East  Level Estimated
Tue 11:42:00 PM 48.1955 -25.7238 69° East  Level Estimated
Tue 11:43:00 PM 48.2443 -25.5315 69° East  Level Estimated
Tue 11:44:00 PM 48.2928 -25.3389 69° East  Level Estimated
Tue 11:45:00 PM 48.3409 -25.1459 69° East  Level Estimated
Tue 11:46:00 PM 48.3888 -24.9525 70° East  Level Estimated
Tue 11:47:00 PM 48.4363 -24.7588 70° East  Level Estimated
Tue 11:48:00 PM 48.4835 -24.5647 70° East  Level Estimated
Tue 11:49:00 PM 48.5303 -24.3703 70° East  Level Estimated
Tue 11:50:00 PM 48.5769 -24.1754 70° East  Level Estimated
Tue 11:51:00 PM 48.6231 -23.9803 70° East  Level Estimated
Tue 11:52:00 PM 48.6690 -23.7848 70° East  Level Estimated
Tue 11:53:00 PM 48.7145 -23.5889 71° East  Level Estimated
Tue 11:54:00 PM 48.7597 -23.3927 71° East  Level Estimated
Tue 11:55:00 PM 48.8046 -23.1961 71° East  Level Estimated
Tue 11:56:00 PM 48.8492 -22.9991 71° East  Level Estimated
Tue 11:57:00 PM 48.8934 -22.8019 71° East  Level Estimated
Tue 11:58:00 PM 48.9372 -22.6042 71° East  Level Estimated
Tue 11:59:00 PM 48.9808 -22.4062 71° East  Level Estimated
Wed 12:00:00 AM 49.0240 -22.2079 72° East  Level Estimated
Wed 12:01:00 AM 49.0668 -22.0093 72° East  Level Estimated
Wed 12:02:00 AM 49.1093 -21.8103 72° East  Level Estimated
Wed 12:03:00 AM 49.1515 -21.6109 72° East  Level Estimated
Wed 12:04:00 AM 49.1933 -21.4112 72° East  Level Estimated
Wed 12:05:00 AM 49.2348 -21.2112 72° East  Level Estimated
Wed 12:06:00 AM 49.2759 -21.0109 72° East  Level Estimated
Wed 12:07:00 AM 49.3167 -20.8102 73° East  Level Estimated
Wed 12:08:00 AM 49.3572 -20.6091 73° East  Level Estimated
Wed 12:09:00 AM 49.3972 -20.4078 73° East  Level Estimated
Wed 12:10:00 AM 49.4370 -20.2061 73° East  Level Estimated
Wed 12:11:00 AM 49.4764 -20.0041 73° East  Level Estimated
Wed 12:12:00 AM 49.5154 -19.8018 73° East  Level Estimated
Wed 12:13:00 AM 49.5541 -19.5991 74° East  Level Estimated
Wed 12:14:00 AM 49.5924 -19.3962 74° East  Level Estimated
Wed 12:15:00 AM 49.6304 -19.1929 74° East  Level Estimated
Wed 12:16:00 AM 49.6680 -18.9893 74° East  Level Estimated
Wed 12:17:00 AM 49.7053 -18.7854 74° East  Level Estimated
Wed 12:18:00 AM 49.7422 -18.5811 74° East  Level Estimated
Wed 12:19:00 AM 49.7787 -18.3766 74° East  Level Estimated
Wed 12:20:00 AM 49.8149 -18.1717 75° East  Level Estimated
Wed 12:21:00 AM 49.8507 -17.9666 75° East  Level Estimated
Wed 12:22:00 AM 49.8862 -17.7612 75° East  Level Estimated
Wed 12:23:00 AM 49.9213 -17.5554 75° East  Level Estimated
Wed 12:24:00 AM 49.9313 -17.3430 86° East  Level FlightAware Approximate
Wed 12:25:00 AM 49.9410 -17.1306 86° East  Level FlightAware Approximate
Wed 12:26:00 AM 49.9504 -16.9181 86° East  Level FlightAware Approximate
Wed 12:27:00 AM 49.9593 -16.7054 86° East  Level FlightAware Approximate
Wed 12:28:00 AM 49.9678 -16.4927 86° East  Level FlightAware Approximate
Wed 12:29:00 AM 49.9759 -16.2800 87° East  Level FlightAware Approximate
Wed 12:30:00 AM 49.9837 -16.0671 87° East  Level FlightAware Approximate
Wed 12:31:00 AM 49.9911 -15.8542 87° East  Level FlightAware Approximate
Wed 12:32:00 AM 49.9980 -15.6412 87° East  Level FlightAware Approximate
Wed 12:33:00 AM 50.0046 -15.4282 87° East  Level FlightAware Approximate
Wed 12:34:00 AM 50.0108 -15.2151 87° East  Level FlightAware Approximate
Wed 12:35:00 AM 50.0166 -15.0020 87° East  Level FlightAware Approximate
Wed 12:36:00 AM 50.0223 -14.7888 88° East  Level FlightAware Approximate
Wed 12:37:00 AM 50.0277 -14.5756 88° East  Level FlightAware Approximate
Wed 12:38:00 AM 50.0326 -14.3623 88° East  Level FlightAware Approximate
Wed 12:39:00 AM 50.0371 -14.1490 88° East  Level FlightAware Approximate
Wed 12:40:00 AM 50.0413 -13.9357 88° East  Level FlightAware Approximate
Wed 12:41:00 AM 50.0451 -13.7218 88° East  Level FlightAware Approximate
Wed 12:42:00 AM 50.0485 -13.5080 89° East  Level FlightAware Approximate
Wed 12:43:00 AM 50.0514 -13.2941 89° East  Level FlightAware Approximate
Wed 12:44:00 AM 50.0540 -13.0802 89° East  Level FlightAware Approximate
Wed 12:45:00 AM 50.0562 -12.8662 89° East  Level FlightAware Approximate
Wed 12:46:00 AM 50.0580 -12.6523 89° East  Level FlightAware Approximate
Wed 12:47:00 AM 50.0594 -12.4383 89° East  Level FlightAware Approximate
Wed 12:48:00 AM 50.0605 -12.2243 89° East  Level FlightAware Approximate
Wed 12:49:00 AM 50.0611 -12.0103 90° East  Level FlightAware Approximate
Wed 12:50:00 AM 50.0613 -11.7963 90° East  Level FlightAware Approximate
Wed 12:51:00 AM 50.0612 -11.5823 90° East  Level FlightAware Approximate
Wed 12:52:00 AM 50.0606 -11.3683 90° East  Level FlightAware Approximate
Wed 12:53:00 AM 50.0597 -11.1543 90° East  Level FlightAware Approximate
Wed 12:54:00 AM 50.0583 -10.9404 90° East  Level FlightAware Approximate
Wed 12:55:00 AM 50.0566 -10.7264 91° East  Level FlightAware Approximate
Wed 12:56:00 AM 50.0545 -10.5125 91° East  Level FlightAware Approximate
Wed 12:57:00 AM 50.0519 -10.2985 91° East  Level FlightAware Approximate
Wed 12:58:00 AM 50.0490 -10.0846 91° East  Level FlightAware Approximate
Wed 12:59:00 AM 50.0457 -9.8708 91° East  Level FlightAware Approximate
Wed 01:00:00 AM 50.0420 -9.6569 91° East  Level FlightAware Approximate
Wed 01:01:00 AM 50.0379 -9.4431 92° East  Level FlightAware Approximate
Wed 01:02:00 AM 50.0334 -9.2294 92° East  Level FlightAware Approximate
Wed 01:02:40 AM 49.9741 -8.9926 92° East 470 541 34,000  Level FlightAware UK
Wed 01:03:10 AM 49.9888 -8.8945 77° East 468 539 34,000  Level FlightAware UK
Wed 01:03:40 AM 50.0030 -8.7963 77° East 466 536 34,000  Level FlightAware UK
Wed 01:04:10 AM 50.0180 -8.6990 77° East 464 534 34,000  Level FlightAware UK
Wed 01:04:40 AM 50.0330 -8.6022 76° East 462 532 34,000  Level FlightAware UK
Wed 01:05:10 AM 50.0462 -8.5049 78° East 462 532 34,000  Level FlightAware UK
Wed 01:05:40 AM 50.0607 -8.4084 77° East 462 532 34,000  Level FlightAware UK
Wed 01:06:10 AM 50.0736 -8.3112 78° East 462 532 34,000  Level FlightAware UK
Wed 01:06:40 AM 50.0888 -8.2151 76° East 462 532 34,000  Level FlightAware UK
Wed 01:07:10 AM 50.1024 -8.1175 78° East 462 532 34,000  Level FlightAware UK
Wed 01:07:40 AM 50.1165 -8.0208 77° East 460 529 34,000  Level FlightAware UK
Wed 01:08:10 AM 50.1301 -7.9238 78° East 462 532 34,000  Level FlightAware UK
Wed 01:08:40 AM 50.1439 -7.8269 77° East 462 532 34,000  Level FlightAware UK
Wed 01:09:10 AM 50.1579 -7.7293 77° East 462 532 34,000  Level FlightAware UK
Wed 01:09:40 AM 50.1715 -7.6322 78° East 462 532 34,000  Level FlightAware UK
Wed 01:10:10 AM 50.1847 -7.5348 78° East 460 529 34,000  Level FlightAware UK
Wed 01:10:13 AM 50.1834 -7.5343 78° East 461 531 34,000  Level FlightAware ADS-B (EGYM / MRH)
Wed 01:11:10 AM 50.2101 -7.3395 78° East 464 534 34,000  Level FlightAware UK
Wed 01:11:40 AM 50.2235 -7.2418 78° East 464 534 34,000  Level FlightAware UK
Wed 01:12:06 AM 50.2323 -7.1690 78° East 464 534 34,000  Level FlightAware ADS-B (EGYM / MRH)
Wed 01:12:10 AM 50.2378 -7.1443 77° East 464 534 34,000  Level FlightAware UK
Wed 01:12:40 AM 50.2487 -7.0448 78° East 466 536 34,000  Level FlightAware UK
Wed 01:12:53 AM 50.2529 -7.0148 79° East 465 535 34,000  Level FlightAware ADS-B (EGYM / MRH)
Wed 01:13:30 AM 50.2701 -6.8832 79° East 466 536 34,000  Level FlightAware ADS-B (EGCW)
Wed 01:14:02 AM 50.2837 -6.7774 79° East 468 539 34,000  Level FlightAware ADS-B (EGYM / MRH)
Wed 01:14:40 AM 50.2990 -6.6584 79° East 468 539 34,000  Level FlightAware ADS-B (EGCW)
Wed 01:15:10 AM 50.3139 -6.5490 79° East 470 541 34,000  Level FlightAware UK
Wed 01:15:20 AM 50.3162 -6.5223 79° East 470 541 34,000  Level FlightAware ADS-B (EGCW)
Wed 01:15:51 AM 50.3288 -6.4224 79° East 470 541 34,000  Level FlightAware ADS-B
Wed 01:16:28 AM 50.3453 -6.2926 80° East 468 539 34,000  Level FlightAware ADS-B (EHDB)
Wed 01:16:39 AM 50.3495 -6.2561 80° East 469 540 34,000  Level FlightAware ADS-B (EHDB)
Wed 01:17:11 AM 50.3627 -6.1477 80° East 472 543 34,000  Level FlightAware UK
Wed 01:17:14 AM 50.3642 -6.1392 79° East 472 543 34,000  Level FlightAware ADS-B
Wed 01:17:44 AM 50.3765 -6.0387 79° East 471 542 34,000  Level FlightAware ADS-B (EGYM / MRH)
Wed 01:18:19 AM 50.3907 -5.9215 80° East 471 542 34,000  Level FlightAware ADS-B (EHDB)
Wed 01:18:43 AM 50.4004 -5.8409 79° East 472 543 34,000  Level FlightAware ADS-B (EGYM / MRH)
Wed 01:19:10 AM 50.4111 -5.7537 79° East 473 544 34,000  Level FlightAware ADS-B (EGCW)
Wed 01:19:40 AM 50.4236 -5.6494 80° East 474 545 34,000  Level FlightAware ADS-B (EGCW)
Wed 01:20:10 AM 50.4355 -5.5449 80° East 474 545 34,000  Level FlightAware ADS-B (EGCW)
Wed 01:20:41 AM 50.4476 -5.4434 80° East 475 547 34,000  Level FlightAware ADS-B (EGCW)
Wed 01:21:12 AM 50.4600 -5.3354 80° East 475 547 34,000  Level FlightAware ADS-B (EHDB)
Wed 01:21:47 AM 50.4733 -5.2174 80° East 476 548 34,000  Level FlightAware UK
Wed 01:21:47 AM 50.4637 -5.3049 80° East 475 547 34,000  Level FlightAware ADS-B
Wed 01:22:17 AM 50.4850 -5.1159 80° East 476 548 34,000  Level FlightAware UK
Wed 01:22:19 AM 50.4858 -5.1119 80° East 475 547 34,000  Level FlightAware ADS-B (EGCW)
Wed 01:22:52 AM 50.4983 -5.0000 80° East 475 547 34,000  Level FlightAware ADS-B (EHDB)
Wed 01:23:24 AM 50.5107 -4.8912 80° East 476 548 34,000  Level FlightAware ADS-B (EGYM / MRH)
Wed 01:23:39 AM 50.5164 -4.8401 80° East 476 548 34,000  Level FlightAware ADS-B
Wed 01:23:54 AM 50.5216 -4.7928 80° East 476 548 34,000  Level FlightAware ADS-B (EHDB)
Wed 01:24:10 AM 50.5281 -4.7347 80° East 476 548 34,000  Level FlightAware ADS-B
Wed 01:24:26 AM 50.5339 -4.6805 80° East 476 548 34,000  Level FlightAware ADS-B (EGYM / MRH)
Wed 01:24:41 AM 50.5395 -4.6294 80° East 477 549 34,000  Level FlightAware ADS-B
Wed 01:24:58 AM 50.5451 -4.5781 80° East 478 550 34,000  Level FlightAware ADS-B (EGCW)
Wed 01:25:11 AM 50.5507 -4.5268 80° East 478 550 34,000  Level FlightAware ADS-B
Wed 01:25:12 AM 50.5499 -4.5336 80° East 478 550 34,000  Level FlightAware ADS-B (EGDX / DGX)
Wed 01:25:20 AM 50.5536 -4.4997 80° East 478 550 34,000  Level FlightAware ADS-B (EGDX / DGX)
Wed 01:25:42 AM 50.5620 -4.4209 81° East 478 550 34,000  Level FlightAware ADS-B
Wed 01:25:43 AM 50.5624 -4.4176 82° East 477 549 34,000  Level FlightAware ADS-B (EHDB)
Wed 01:26:12 AM 50.5735 -4.3184 80° East 479 551 34,000  Level FlightAware ADS-B
Wed 01:26:13 AM 50.5736 -4.3147 81° East 479 551 34,000  Level FlightAware ADS-B
Wed 01:26:44 AM 50.5847 -4.2083 81° East 480 552 34,000  Level FlightAware ADS-B
Wed 01:26:48 AM 50.5862 -4.1947 81° East 480 552 34,000  Level FlightAware ADS-B
Wed 01:26:51 AM 50.5874 -4.1845 82° East 479 551 34,000  Level FlightAware ADS-B (EHDB)
Wed 01:27:00 AM 50.5907 -4.1536 82° East 479 551 34,000  Level FlightAware ADS-B
Wed 01:27:15 AM 50.5960 -4.1019 81° East 480 552 34,000  Level FlightAware ADS-B
Wed 01:27:17 AM 50.5964 -4.0983 82° East 479 551 34,000  Level FlightAware ADS-B
Wed 01:27:29 AM 50.6011 -4.0537 82° East 479 551 34,000  Level FlightAware ADS-B
Wed 01:27:39 AM 50.6045 -4.0194 81° East 480 552 34,000  Level FlightAware ADS-B
Wed 01:27:46 AM 50.6071 -3.9951 81° East 480 552 34,000  Level FlightAware ADS-B
Wed 01:27:49 AM 50.6082 -3.9849 82° East 479 551 34,000  Level FlightAware ADS-B
Wed 01:28:17 AM 50.6180 -3.8884 81° East 480 552 34,000  Level FlightAware ADS-B
Wed 01:28:30 AM 50.6226 -3.8437 81° East 479 551 34,000  Level FlightAware ADS-B
Wed 01:28:43 AM 50.6270 -3.7990 82° East 478 550 34,000  Level FlightAware ADS-B
Wed 01:28:47 AM 50.6285 -3.7854 81° East 479 551 34,000  Level FlightAware ADS-B
Wed 01:28:53 AM 50.6305 -3.7645 82° East 478 550 34,000  Level FlightAware ADS-B
Wed 01:29:09 AM 50.6360 -3.7099 81° East 479 551 34,000  Level FlightAware ADS-B (EGDX / DGX)
Wed 01:29:13 AM 50.6374 -3.6960 82° East 478 550 34,000  Level FlightAware ADS-B
Wed 01:29:19 AM 50.6394 -3.6752 81° East 479 551 34,000  Level FlightAware ADS-B
Wed 01:29:32 AM 50.6441 -3.6308 82° East 478 550 34,000  Level FlightAware ADS-B (EHDB)
Wed 01:29:43 AM 50.6479 -3.5929 82° East 477 549 34,000  Level FlightAware ADS-B (EHDB)
Wed 01:29:49 AM 50.6500 -3.5723 81° East 478 550 34,000  Level FlightAware ADS-B
Wed 01:30:13 AM 50.6583 -3.4866 81° East 477 549 34,000  Level FlightAware ADS-B
Wed 01:30:20 AM 50.6606 -3.4660 81° East 477 549 34,000  Level FlightAware ADS-B
Wed 01:30:21 AM 50.6609 -3.4626 82° East 476 548 34,000  Level FlightAware ADS-B (EHDB)
Wed 01:30:35 AM 50.6657 -3.4112 81° East 477 549 34,000  Level FlightAware ADS-B
Wed 01:30:41 AM 50.6675 -3.3942 81° East 477 549 34,000  Level FlightAware ADS-B (EGDX / DGX)
Wed 01:30:46 AM 50.6695 -3.3736 82° East 475 547 34,000  Level FlightAware ADS-B (EHDB)
Wed 01:30:50 AM 50.6708 -3.3631 81° East 476 548 34,000  Level FlightAware ADS-B
Wed 01:30:54 AM 50.6720 -3.3496 82° East 475 547 34,000  Level FlightAware ADS-B
Wed 01:31:13 AM 50.6781 -3.2880 81° East 476 548 34,000  Level FlightAware ADS-B (EGDX / DGX)
Wed 01:31:21 AM 50.6810 -3.2571 81° East 476 548 34,000  Level FlightAware ADS-B
Wed 01:31:25 AM 50.6823 -3.2433 82° East 475 547 34,000  Level FlightAware ADS-B (EHDB)
Wed 01:31:35 AM 50.6856 -3.2091 81° East 476 548 34,000 -273 Level FlightAware ADS-B (EGCW)
Wed 01:31:47 AM 50.6896 -3.1679 82° East 476 548 33,900 -353 Descending FlightAware ADS-B
Wed 01:31:52 AM 50.6913 -3.1473 81° East 478 550 33,900 -1,091 Level FlightAware ADS-B
Wed 01:31:58 AM 50.6927 -3.1337 81° East 478 550 33,700 -2,000 Descending FlightAware ADS-B (EGLF / FAB)
Wed 01:32:01 AM 50.6942 -3.1199 82° East 477 549 33,600 -2,500 Descending FlightAware ADS-B (EHDB)
Wed 01:32:10 AM 50.6971 -3.0886 81° East 483 556 33,200 -2,250 Descending FlightAware ADS-B (EGLF / FAB)
Wed 01:32:17 AM 50.6995 -3.0644 82° East 482 555 33,000 -1,846 Descending FlightAware ADS-B
Wed 01:32:23 AM 50.7014 -3.0436 82° East 484 557 32,800 -2,250 Descending FlightAware ADS-B
Wed 01:32:25 AM 50.7020 -3.0365 83° East 483 556 32,700 -2,143 Descending FlightAware ADS-B (EHDB)
Wed 01:32:37 AM 50.7061 -2.9946 83° East 482 555 32,300 -2,250 Descending FlightAware ADS-B (EHDB)
Wed 01:32:41 AM 50.7033 -3.0225 82° East 482 555 32,100 -2,250 Descending FlightAware ADS-B (EGCW)
Wed 01:32:53 AM 50.7113 -2.9392 82° East 481 554 31,700 -2,200 Descending FlightAware ADS-B
Wed 01:33:11 AM 50.7170 -2.8773 82° East 476 548 31,000 -2,400 Descending FlightAware ADS-B (EGCW)
Wed 01:33:23 AM 50.7210 -2.8328 82° East 474 545 30,500 -2,323 Descending FlightAware ADS-B
Wed 01:33:42 AM 50.7267 -2.7716 82° East 470 541 29,800 -2,182 Descending FlightAware ADS-B (EGDM)
Wed 01:33:56 AM 50.7310 -2.7245 82° East 467 537 29,300 -2,438 Descending FlightAware ADS-B
Wed 01:34:14 AM 50.7368 -2.6642 82° East 464 534 28,500 -2,308 Descending FlightAware ADS-B (EGHA)
Wed 01:34:35 AM 50.7432 -2.5911 83° East 459 528 27,800 -2,087 Descending FlightAware ADS-B
Wed 01:34:37 AM 50.7436 -2.5877 82° East 465 535 27,700 -2,400 Descending FlightAware ADS-B
Wed 01:34:40 AM 50.7442 -2.5777 86° East 458 527 27,600 -2,250 Descending FlightAware ADS-B (EHDB)
Wed 01:34:45 AM 50.7447 -2.5677 89° East 459 528 27,400 -1,500 Descending FlightAware ADS-B
Wed 01:34:52 AM 50.7448 -2.5410 90° East 458 527 27,300 -1,385 Descending FlightAware ADS-B (EHDB)
Wed 01:34:58 AM 50.7439 -2.5177 82° East 459 528 27,100 -1,200 Descending FlightAware ADS-B
Wed 01:35:02 AM 50.7430 -2.5012 95° East 455 524 27,100 -857 Level FlightAware ADS-B
Wed 01:35:05 AM 50.7422 -2.4945 98° East 452 520 27,000 -1,500 Descending FlightAware ADS-B
Wed 01:35:10 AM 50.7405 -2.4784 100° East 450 518 26,900 -1,059 Descending FlightAware ADS-B (EHDB)
Wed 01:35:22 AM 50.7352 -2.4435 105° East 444 511 26,700 -1,455 Descending FlightAware ADS-B (EGDX / DGX)
Wed 01:35:43 AM 50.7231 -2.3753 106° East 438 504 26,100 -1,778 Descending FlightAware ADS-B
Wed 01:35:49 AM 50.7197 -2.3571 105° East 436 502 25,900 -2,250 Descending FlightAware ADS-B
Wed 01:35:59 AM 50.7134 -2.3233 107° East 436 502 25,500 -2,000 Descending FlightAware ADS-B (EGLF / FAB)
Wed 01:36:13 AM 50.7055 -2.2809 107° East 435 501 25,100 -1,935 Descending FlightAware ADS-B
Wed 01:36:30 AM 50.6955 -2.2295 107° East 433 498 24,500 -1,800 Descending FlightAware ADS-B
Wed 01:36:43 AM 50.6880 -2.1904 107° East 432 497 24,200 -1,286 Descending FlightAware ADS-B
Wed 01:36:44 AM 50.6880 -2.1904 106° East 429 494 24,200 -2,000 Level FlightAware ADS-B
Wed 01:36:49 AM 50.6844 -2.1721 106° East 428 493 24,000 -1,500 Descending FlightAware ADS-B
Wed 01:36:52 AM 50.6830 -2.1663 106° East 429 494 24,000 -2,182 Level FlightAware ADS-B
Wed 01:37:00 AM 50.6786 -2.1424 107° East 430 495 23,600 -1,667 Descending FlightAware ADS-B (KPGA)
Wed 01:37:10 AM 50.6727 -2.1126 106° East 426 490 23,500 -1,125 Descending FlightAware ADS-B (EHDB)
Wed 01:37:16 AM 50.6688 -2.0916 107° East 428 493 23,300 -2,000 Descending FlightAware ADS-B
Wed 01:37:28 AM 50.6626 -2.0589 107° East 427 491 22,900 -1,742 Descending FlightAware ADS-B (EGHA)
Wed 01:37:47 AM 50.6512 -2.0022 107° East 427 491 22,400 -1,714 Descending FlightAware ADS-B
Wed 01:37:56 AM 50.6460 -1.9726 106° East 425 489 22,100 -1,778 Descending FlightAware ADS-B
Wed 01:38:14 AM 50.6361 -1.9219 106° East 424 488 21,600 -1,636 Descending FlightAware ADS-B
Wed 01:38:18 AM 50.6338 -1.9101 107° East 426 490 21,500 -1,714 Descending FlightAware ADS-B
Wed 01:38:28 AM 50.6277 -1.8806 107° East 425 489 21,200 -1,875 Descending FlightAware ADS-B (EGHA)
Wed 01:38:34 AM 50.6245 -1.8629 106° East 422 486 21,000 -2,000 Descending FlightAware ADS-B (EHDB)
Wed 01:38:37 AM 50.6232 -1.8568 107° East 423 487 20,900 -1,500 Descending FlightAware ADS-B (KPGA)
Wed 01:38:46 AM 50.6178 -1.8275 106° East 420 483 20,700 -1,636 Descending FlightAware ADS-B (EHDB)
Wed 01:38:48 AM 50.6164 -1.8216 107° East 421 484 20,600 -1,800 Descending FlightAware ADS-B
Wed 01:38:56 AM 50.6116 -1.7954 106° East 418 481 20,400 -2,000 Descending FlightAware ADS-B (EHDB)
Wed 01:39:09 AM 50.6040 -1.7574 107° East 420 483 19,900 -1,826 Descending FlightAware ADS-B (EGLF / FAB)
Wed 01:39:19 AM 50.5985 -1.7314 107° East 418 481 19,700 -1,500 Descending FlightAware ADS-B
Wed 01:39:21 AM 50.5975 -1.7253 106° East 416 479 19,600 -2,118 Descending FlightAware ADS-B
Wed 01:39:36 AM 50.5890 -1.6819 106° East 414 476 19,100 -1,636 Descending FlightAware ADS-B
Wed 01:39:43 AM 50.5863 -1.6617 101° East 412 474 19,000 -1,091 Descending FlightAware ADS-B
Wed 01:39:47 AM 50.5854 -1.6499 95° East 408 470 18,900 -1,800 Descending FlightAware ADS-B (EHDB)
Wed 01:39:53 AM 50.5848 -1.6320 91° East 405 466 18,700 -1,500 Descending FlightAware ADS-B
Wed 01:39:59 AM 50.5852 -1.6146 87° East 401 461 18,600 -1,333 Descending FlightAware ADS-B
Wed 01:40:02 AM 50.5856 -1.6059 84° East 398 458 18,500 -1,333 Descending FlightAware ADS-B
Wed 01:40:08 AM 50.5874 -1.5887 79° East 394 453 18,400 -1,333 Descending FlightAware ADS-B
Wed 01:40:11 AM 50.5887 -1.5804 77° East 391 450 18,300 -1,500 Descending FlightAware ADS-B
Wed 01:40:12 AM 50.5889 -1.5777 75° East 390 449 18,300 -1,500 Level FlightAware ADS-B (EGHS)
Wed 01:40:19 AM 50.5930 -1.5590 70° East 384 442 18,100 -1,500 Descending FlightAware ADS-B
Wed 01:40:24 AM 50.5967 -1.5437 65° Northeast 378 435 18,000 -857 Descending FlightAware ADS-B
Wed 01:40:26 AM 50.5974 -1.5412 64° Northeast 377 434 18,000  Level FlightAware ADS-B (EGHA)
Wed 01:40:27 AM 50.5979 -1.5412 63° Northeast 377 434 18,000 -1,286 Level FlightAware ADS-B
Wed 01:40:54 AM 50.6191 -1.4738 63° Northeast 365 420 17,400 -1,200 Descending FlightAware ADS-B
Wed 01:40:57 AM 50.6210 -1.4667 63° Northeast 365 420 17,400 -1,667 Level FlightAware ADS-B
Wed 01:41:12 AM 50.6328 -1.4314 63° Northeast 364 419 16,900 -2,000 Descending FlightAware ADS-B (EGHS)
Wed 01:41:24 AM 50.6423 -1.4031 63° Northeast 363 418 16,500 -1,750 Descending FlightAware ADS-B
Wed 01:41:36 AM 50.6516 -1.3751 61° Northeast 360 414 16,200 -1,200 Descending FlightAware ADS-B
Wed 01:41:39 AM 50.6547 -1.3662 58° Northeast 357 411 16,200 -1,000 Level FlightAware ADS-B (EGLF / FAB)
Wed 01:41:42 AM 50.6571 -1.3620 55° Northeast 354 407 16,100 -1,200 Descending FlightAware ADS-B
Wed 01:41:44 AM 50.6591 -1.3578 54° Northeast 351 404 16,100 -600 Level FlightAware ADS-B
Wed 01:41:52 AM 50.6672 -1.3423 48° Northeast 341 392 16,000 -400 Descending FlightAware ADS-B
Wed 01:41:59 AM 50.6748 -1.3299 44° Northeast 332 382 16,000 -500 Level FlightAware ADS-B
Wed 01:42:04 AM 50.6810 -1.3204 39° Northeast 325 374 15,900 -750 Descending FlightAware ADS-B
Wed 01:42:07 AM 50.6840 -1.3175 38° Northeast 324 373 15,900  Level FlightAware ADS-B (EHDB)
Wed 01:42:12 AM 50.6895 -1.3106 34° Northeast 318 366 15,900 -857 Level FlightAware ADS-B
Wed 01:42:21 AM 50.7009 -1.2990 63° Northeast 364 419 15,700 -1,250 Descending FlightAware ADS-B (EGLF / FAB)
Wed 01:42:36 AM 50.7020 -1.2977 33° Northeast 310 357 15,400 -1,143 Descending FlightAware ADS-B (EGHA)
Wed 01:42:42 AM 50.7257 -1.2729 33° Northeast 310 357 15,300 -800 Descending FlightAware ADS-B
Wed 01:43:06 AM 50.7543 -1.2438 33° Northeast 304 350 15,000 -800 Descending FlightAware ADS-B (EGDM)
Wed 01:43:12 AM 50.7620 -1.2366 33° Northeast 303 349 14,900 -1,200 Descending FlightAware ADS-B
Wed 01:43:16 AM 50.7661 -1.2318 33° Northeast 302 348 14,800 -750 Descending FlightAware ADS-B
Wed 01:43:28 AM 50.7802 -1.2174 34° Northeast 294 338 14,700 -800 Descending FlightAware ADS-B (EHDB)
Wed 01:43:31 AM 50.7838 -1.2139 34° Northeast 294 338 14,600 -800 Descending FlightAware ADS-B
Wed 01:43:43 AM 50.7978 -1.1996 33° Northeast 301 346 14,500 -571 Descending FlightAware ADS-B
Wed 01:43:52 AM 50.8088 -1.1889 34° Northeast 294 338 14,400 -923 Descending FlightAware ADS-B (EHDB)
Wed 01:43:56 AM 50.8114 -1.1853 33° Northeast 302 348 14,300 -857 Descending FlightAware ADS-B (EGHA)
Wed 01:44:06 AM 50.8244 -1.1722 34° Northeast 295 339 14,200 -706 Descending FlightAware ADS-B
Wed 01:44:13 AM 50.8330 -1.1637 33° Northeast 300 345 14,100 -545 Descending FlightAware ADS-B
Wed 01:44:28 AM 50.8500 -1.1457 34° Northeast 295 339 14,000 -692 Descending FlightAware ADS-B (EHDB)
Wed 01:44:39 AM 50.8637 -1.1316 33° Northeast 289 333 13,800 -750 Descending FlightAware ADS-B (EGLF / FAB)
Wed 01:44:44 AM 50.8681 -1.1270 33° Northeast 287 330 13,800 -500 Level FlightAware ADS-B
Wed 01:44:51 AM 50.8758 -1.1190 34° Northeast 276 318 13,700 -900 Descending FlightAware ADS-B (EHDB)
Wed 01:45:04 AM 50.8907 -1.1032 34° Northeast 271 312 13,500 -1,043 Descending FlightAware ADS-B (EHDB)
Wed 01:45:14 AM 50.9010 -1.0933 33° Northeast 277 319 13,300 -1,143 Descending FlightAware ADS-B
Wed 01:45:25 AM 50.9122 -1.0810 33° Northeast 276 318 13,100 -800 Descending FlightAware ADS-B (EGDM)
Wed 01:45:44 AM 50.9333 -1.0591 33° Northeast 273 314 12,900 -774 Descending FlightAware ADS-B
Wed 01:45:56 AM 50.9453 -1.0471 33° Northeast 271 312 12,700 -774 Descending FlightAware ADS-B
Wed 01:46:15 AM 50.9653 -1.0266 33° Northeast 267 307 12,500 -800 Descending FlightAware ADS-B
Wed 01:46:26 AM 50.9766 -1.0148 33° Northeast 267 307 12,300 -889 Descending FlightAware ADS-B (EGDM)
Wed 01:46:42 AM 50.9930 -0.9976 34° Northeast 268 308 12,100 -667 Descending FlightAware ADS-B
Wed 01:46:44 AM 50.9950 -0.9954 36° Northeast 262 302 12,100 -750 Level FlightAware ADS-B
Wed 01:46:50 AM 51.0010 -0.9883 38° Northeast 272 313 12,000 -400 Descending FlightAware ADS-B
Wed 01:46:59 AM 51.0104 -0.9751 44° Northeast 273 314 12,000  Level FlightAware ADS-B (EGLF / FAB)
Wed 01:47:03 AM 51.0136 -0.9707 46° Northeast 273 314 12,000  Level FlightAware ADS-B
Wed 01:47:08 AM 51.0176 -0.9635 48° Northeast 275 316 12,000 -231 Level FlightAware ADS-B (EGDM)
Wed 01:47:29 AM 51.0348 -0.9320 48° Northeast 274 315 11,900 -480 Descending FlightAware ADS-B
Wed 01:47:33 AM 51.0391 -0.9245 49° Northeast 273 314 11,800 -600 Descending FlightAware ADS-B
Wed 01:47:49 AM 51.0519 -0.9019 48° Northeast 276 318 11,700 -480 Descending FlightAware ADS-B
Wed 01:47:58 AM 51.0593 -0.8882 48° Northeast 277 319 11,600 -923 Descending FlightAware ADS-B
Wed 01:48:02 AM 51.0627 -0.8820 49° Northeast 276 318 11,500 -571 Descending FlightAware ADS-B
Wed 01:48:19 AM 51.0770 -0.8563 48° Northeast 276 318 11,400 -300 Descending FlightAware ADS-B
Wed 01:48:22 AM 51.0795 -0.8518 50° Northeast 270 311 11,400 -600 Level FlightAware ADS-B (EHDB)
Wed 01:48:29 AM 51.0862 -0.8411 48° Northeast 277 319 11,300 -600 Descending FlightAware ADS-B
Wed 01:48:32 AM 51.0882 -0.8366 49° Northeast 276 318 11,300 -857 Level FlightAware ADS-B
Wed 01:48:36 AM 51.0921 -0.8305 50° Northeast 270 311 11,200 -800 Descending FlightAware ADS-B
Wed 01:48:47 AM 51.1009 -0.8137 50° Northeast 270 311 11,100 -545 Descending FlightAware ADS-B
Wed 01:48:58 AM 51.1100 -0.7971 49° Northeast 275 316 11,000 -188 Descending FlightAware ADS-B
Wed 01:49:19 AM 51.1284 -0.7640 49° Northeast 273 314 11,000  Level FlightAware ADS-B (EGLF / FAB)
Wed 01:49:28 AM 51.1354 -0.7519 49° Northeast 271 312 11,000  Level FlightAware ADS-B
Wed 01:49:29 AM 51.1347 -0.7534 48° Northeast 272 313 11,000  Level FlightAware ADS-B
Wed 01:49:49 AM 51.1532 -0.7189 48° Northeast 271 312 11,000  Level FlightAware ADS-B (EGLF / FAB)
Wed 01:49:58 AM 51.1605 -0.7069 48° Northeast 271 312 11,000  Level FlightAware ADS-B
Wed 01:50:17 AM 51.1765 -0.6770 49° Northeast 271 312 11,000  Level FlightAware ADS-B
Wed 01:50:19 AM 51.1783 -0.6741 49° Northeast 271 312 11,000  Level FlightAware ADS-B (EGLF / FAB)
Wed 01:50:29 AM 51.1852 -0.6622 48° Northeast 271 312 11,000  Level FlightAware ADS-B
Wed 01:50:48 AM 51.2016 -0.6325 48° Northeast 270 311 11,000  Level FlightAware ADS-B
Wed 01:50:49 AM 51.2034 -0.6296 48° Northeast 270 311 11,000  Level FlightAware ADS-B (EGLF / FAB)
Wed 01:51:00 AM 51.2108 -0.6163 47° Northeast 269 310 11,000 -207 Level FlightAware ADS-B
Wed 01:51:18 AM 51.2270 -0.5882 48° Northeast 270 311 10,900 -316 Descending FlightAware ADS-B
Wed 01:51:19 AM 51.2143 -0.6103 48° Northeast 270 311 10,900 -545 Level FlightAware ADS-B
Wed 01:51:29 AM 51.2365 -0.5705 49° Northeast 270 311 10,800 -429 Descending FlightAware ADS-B (EGLF / FAB)
Wed 01:51:33 AM 51.2389 -0.5675 48° Northeast 271 312 10,800 -429 Level FlightAware ADS-B
Wed 01:51:43 AM 51.2479 -0.5510 48° Northeast 271 312 10,700 -400 Descending FlightAware ADS-B
Wed 01:51:48 AM 51.2523 -0.5421 48° Northeast 271 312 10,700 -571 Level FlightAware ADS-B
Wed 01:52:04 AM 51.2640 -0.5212 48° Northeast 272 313 10,500 -720 Descending FlightAware ADS-B
Wed 01:52:13 AM 51.2731 -0.5048 49° Northeast 270 311 10,400 -400 Descending FlightAware ADS-B (EGLF / FAB)
Wed 01:52:19 AM 51.2777 -0.4972 48° Northeast 270 311 10,400 -286 Level FlightAware ADS-B
Wed 01:52:34 AM 51.2894 -0.4763 48° Northeast 270 311 10,300 -500 Descending FlightAware ADS-B
Wed 01:52:43 AM 51.2972 -0.4614 49° Northeast 269 310 10,200 -800 Descending FlightAware ADS-B
Wed 01:52:49 AM 51.3026 -0.4524 48° Northeast 269 310 10,100 -857 Descending FlightAware ADS-B
Wed 01:52:50 AM 51.3035 -0.4511 48° Northeast 269 310 10,100 -400 Level FlightAware ADS-B
Wed 01:53:04 AM 51.3154 -0.4288 48° Northeast 271 312 10,000 -273 Descending FlightAware ADS-B
Wed 01:53:12 AM 51.3213 -0.4182 49° Northeast 269 310 10,000  Level FlightAware ADS-B
Wed 01:53:16 AM 51.3245 -0.4121 53° Northeast 271 312 10,000  Level FlightAware ADS-B
Wed 01:53:22 AM 51.3285 -0.4019 61° Northeast 275 316 10,000  Level FlightAware ADS-B
Wed 01:53:23 AM 51.3291 -0.4001 64° Northeast 277 319 10,000  Level FlightAware ADS-B
Wed 01:53:26 AM 51.3311 -0.3926 66° East 278 320 10,000  Level FlightAware ADS-B
Wed 01:53:31 AM 51.3331 -0.3848 72° East 281 323 10,000  Level FlightAware ADS-B
Wed 01:53:33 AM 51.3336 -0.3808 73° East 281 323 10,000  Level FlightAware ADS-B
Wed 01:53:34 AM 51.3341 -0.3789 75° East 284 327 10,000  Level FlightAware ADS-B
Wed 01:53:37 AM 51.3348 -0.3729 79° East 285 328 10,000  Level FlightAware ADS-B
Wed 01:53:38 AM 51.3352 -0.3706 80° East 286 329 10,000  Level FlightAware ADS-B
Wed 01:53:42 AM 51.3357 -0.3622 85° East 288 331 10,000  Level FlightAware ADS-B
Wed 01:53:44 AM 51.3356 -0.3644 86° East 289 333 10,000  Level FlightAware ADS-B
Wed 01:53:46 AM 51.3359 -0.3536 90° East 290 334 10,000  Level FlightAware ADS-B
Wed 01:53:47 AM 51.3359 -0.3495 91° East 291 335 10,000  Level FlightAware ADS-B
Wed 01:53:50 AM 51.3357 -0.3451 95° East 293 337 10,000 -1,000 Level FlightAware ADS-B
Wed 01:53:53 AM 51.3350 -0.3387 99° East 294 338 9,900 -750 Descending FlightAware ADS-B
Wed 01:53:58 AM 51.3336 -0.3281 105° East 296 341 9,900  Level FlightAware ADS-B
Wed 01:54:01 AM 51.3319 -0.3197 110° East 297 342 9,900  Level FlightAware ADS-B
Wed 01:54:04 AM 51.3309 -0.3155 110° East 295 339 9,900 -1,500 Level FlightAware ADS-B (EHDB)
Wed 01:54:05 AM 51.3300 -0.3136 114° Southeast 299 344 9,800 -2,000 Descending FlightAware ADS-B
Wed 01:54:07 AM 51.3290 -0.3095 117° Southeast 299 344 9,800  Level FlightAware ADS-B
Wed 01:54:09 AM 51.3273 -0.3058 120° Southeast 298 343 9,800  Level FlightAware ADS-B
Wed 01:54:14 AM 51.3233 -0.2947 126° Southeast 300 345 9,800  Level FlightAware ADS-B
Wed 01:54:15 AM 51.3225 -0.2930 127° Southeast 300 345 9,800 -1,000 Level FlightAware ADS-B (EGLF / FAB)
Wed 01:54:20 AM 51.3178 -0.2848 134° Southeast 299 344 9,700 -667 Descending FlightAware ADS-B
Wed 01:54:24 AM 51.3143 -0.2802 139° Southeast 299 344 9,700  Level FlightAware ADS-B
Wed 01:54:25 AM 51.3127 -0.2789 140° Southeast 299 344 9,700  Level FlightAware ADS-B
Wed 01:54:29 AM 51.3164 -0.2833 139° Southeast 299 344 9,700 -750 Level FlightAware ADS-B (KPGA)
Wed 01:54:33 AM 51.3033 -0.2682 153° Southeast 297 342 9,600 -1,200 Descending FlightAware ADS-B
Wed 01:54:34 AM 51.3033 -0.2682 154° Southeast 298 343 9,600  Level FlightAware ADS-B
Wed 01:54:37 AM 51.2989 -0.2655 157° South 297 342 9,600  Level FlightAware ADS-B
Wed 01:54:39 AM 51.2955 -0.2635 164° South 294 338 9,600 -857 Level FlightAware ADS-B (EGLF / FAB)
Wed 01:54:44 AM 51.2893 -0.2615 170° South 292 336 9,500 -600 Descending FlightAware ADS-B
Wed 01:54:49 AM 51.2834 -0.2604 176° South 289 333 9,500 -600 Level FlightAware ADS-B
Wed 01:54:54 AM 51.2763 -0.2608 185° South 283 326 9,400 -750 Descending FlightAware ADS-B
Wed 01:54:57 AM 51.2693 -0.2630 194° South 279 321 9,400  Level FlightAware ADS-B
Wed 01:55:00 AM 51.2687 -0.2630 193° South 279 321 9,400  Level FlightAware ADS-B
Wed 01:55:03 AM 51.2655 -0.2649 200° South 275 316 9,400 -667 Level FlightAware ADS-B
Wed 01:55:09 AM 51.2582 -0.2699 209° Southwest 269 310 9,300 -500 Descending FlightAware ADS-B
Wed 01:55:15 AM 51.2523 -0.2764 216° Southwest 265 305 9,300 -600 Level FlightAware ADS-B
Wed 01:55:19 AM 51.2486 -0.2813 224° Southwest 260 299 9,200 -750 Descending FlightAware ADS-B
Wed 01:55:23 AM 51.2452 -0.2871 230° Southwest 257 296 9,200  Level FlightAware ADS-B
Wed 01:55:26 AM 51.2434 -0.2914 234° Southwest 253 291 9,200  Level FlightAware ADS-B
Wed 01:55:27 AM 51.2427 -0.2929 235° Southwest 253 291 9,200  Level FlightAware ADS-B
Wed 01:55:30 AM 51.2407 -0.2977 240° Southwest 251 289 9,200 -1,200 Level FlightAware ADS-B
Wed 01:55:32 AM 51.2401 -0.2992 242° Southwest 250 288 9,100 -2,000 Descending FlightAware ADS-B
Wed 01:55:33 AM 51.2391 -0.3026 244° Southwest 249 287 9,100  Level FlightAware ADS-B
Wed 01:55:39 AM 51.2368 -0.3125 252° West 244 281 9,100  Level FlightAware ADS-B
Wed 01:55:43 AM 51.2357 -0.3194 258° West 241 277 9,100 -750 Level FlightAware ADS-B
Wed 01:55:47 AM 51.2351 -0.3264 263° West 240 276 9,000 -750 Descending FlightAware ADS-B
Wed 01:55:51 AM 51.2348 -0.3335 267° West 238 274 9,000  Level FlightAware ADS-B
Wed 01:55:52 AM 51.2348 -0.3352 271° West 237 273 9,000  Level FlightAware ADS-B
Wed 01:55:54 AM 51.2349 -0.3388 272° West 237 273 9,000 -1,000 Level FlightAware ADS-B
Wed 01:55:58 AM 51.2353 -0.3458 277° West 236 272 8,900 -1,200 Descending FlightAware ADS-B
Wed 01:55:59 AM 51.2356 -0.3491 280° West 236 272 8,900  Level FlightAware ADS-B (EGLF / FAB)
Wed 01:56:03 AM 51.2365 -0.3542 284° West 235 270 8,900  Level FlightAware ADS-B
Wed 01:56:04 AM 51.2366 -0.3559 286° West 235 270 8,900  Level FlightAware ADS-B
Wed 01:56:05 AM 51.2363 -0.3542 285° West 234 269 8,900  Level FlightAware ADS-B
Wed 01:56:07 AM 51.2376 -0.3608 289° West 234 269 8,900 -1,500 Level FlightAware ADS-B
Wed 01:56:09 AM 51.2380 -0.3625 292° West 234 269 8,800 -2,000 Descending FlightAware ADS-B
Wed 01:56:10 AM 51.2389 -0.3656 293° West 233 268 8,800  Level FlightAware ADS-B
Wed 01:56:13 AM 51.2404 -0.3703 297° West 233 268 8,800  Level FlightAware ADS-B
Wed 01:56:17 AM 51.2424 -0.3762 302° West 234 269 8,800  Level FlightAware ADS-B
Wed 01:56:19 AM 51.2436 -0.3791 305° West 234 269 8,800  Level FlightAware ADS-B (EGLF / FAB)
Wed 01:56:20 AM 51.2443 -0.3806 306° West 233 268 8,800 -2,000 Level FlightAware ADS-B
Wed 01:56:22 AM 51.2456 -0.3833 310° West 234 269 8,700 -2,000 Descending FlightAware ADS-B
Wed 01:56:23 AM 51.2467 -0.3859 310° West 234 269 8,700  Level FlightAware ADS-B
Wed 01:56:27 AM 51.2497 -0.3909 315° West 235 270 8,700  Level FlightAware ADS-B
Wed 01:56:28 AM 51.2497 -0.3909 318° Northwest 236 272 8,700 -1,500 Level FlightAware ADS-B (EGLF / FAB)
Wed 01:56:31 AM 51.2524 -0.3944 320° Northwest 236 272 8,600 -1,000 Descending FlightAware ADS-B
Wed 01:56:34 AM 51.2556 -0.3975 324° Northwest 237 273 8,600  Level FlightAware ADS-B
Wed 01:56:35 AM 51.2564 -0.3986 326° Northwest 237 273 8,600 -545 Level FlightAware ADS-B (EGLF / FAB)
Wed 01:56:45 AM 51.2655 -0.4077 329° Northwest 239 275 8,500 -923 Descending FlightAware ADS-B
Wed 01:56:48 AM 51.2689 -0.4113 329° Northwest 239 275 8,400 -667 Descending FlightAware ADS-B
Wed 01:56:54 AM 51.2743 -0.4160 329° Northwest 241 277 8,400 -500 Level FlightAware ADS-B
Wed 01:57:00 AM 51.2802 -0.4216 329° Northwest 241 277 8,300 -667 Descending FlightAware ADS-B
Wed 01:57:03 AM 51.2823 -0.4244 329° Northwest 241 277 8,300 -600 Level FlightAware ADS-B
Wed 01:57:10 AM 51.2890 -0.4309 329° Northwest 242 278 8,200 -600 Descending FlightAware ADS-B
Wed 01:57:13 AM 51.2927 -0.4345 328° Northwest 234 269 8,200  Level FlightAware ADS-B (EHDB)
Wed 01:57:16 AM 51.2951 -0.4364 329° Northwest 240 276 8,200 -400 Level FlightAware ADS-B
Wed 01:57:28 AM 51.3060 -0.4474 329° Northwest 237 273 8,100 -462 Descending FlightAware ADS-B
Wed 01:57:29 AM 51.3076 -0.4482 329° Northwest 237 273 8,100  Level FlightAware ADS-B
Wed 01:57:35 AM 51.3131 -0.4531 336° Northwest 238 274 8,100  Level FlightAware ADS-B (EGLF / FAB)
Wed 01:57:36 AM 51.3148 -0.4544 338° Northwest 239 275 8,100  Level FlightAware ADS-B
Wed 01:57:38 AM 51.3164 -0.4550 342° North 240 276 8,100  Level FlightAware ADS-B
Wed 01:57:42 AM 51.3204 -0.4568 347° North 241 277 8,100  Level FlightAware ADS-B
Wed 01:57:45 AM 51.3240 -0.4575 354° North 243 280 8,100  Level FlightAware ADS-B
Wed 01:57:49 AM 51.3285 -0.4579 359° North 244 281 8,100  Level FlightAware ADS-B
Wed 01:57:52 AM 51.3323 -0.4579 North 246 283 8,100  Level FlightAware ADS-B
Wed 01:57:53 AM 51.3329 -0.4579 North 247 284 8,100  Level FlightAware ADS-B
Wed 01:58:04 AM 51.3453 -0.4568 North 248 285 8,100 -429 Level FlightAware ADS-B
Wed 01:58:07 AM 51.3497 -0.4564 North 247 284 8,000 -1,200 Descending FlightAware ADS-B
Wed 01:58:09 AM 51.3507 -0.4563 North 247 284 8,000  Level FlightAware ADS-B
Wed 01:58:19 AM 51.3627 -0.4553 North 244 281 8,000 -545 Level FlightAware ADS-B
Wed 01:58:20 AM 51.3668 -0.4546 North 245 282 7,900 -1,200 Descending FlightAware ADS-B
Wed 01:58:24 AM 51.3680 -0.4543 North 246 283 7,900 -750 Level FlightAware ADS-B
Wed 01:58:28 AM 51.3726 -0.4530 14° North 248 285 7,800 -1,200 Descending FlightAware ADS-B
Wed 01:58:29 AM 51.3737 -0.4524 15° North 249 287 7,800  Level FlightAware ADS-B (EGLF / FAB)
Wed 01:58:31 AM 51.3759 -0.4513 19° North 250 288 7,800  Level FlightAware ADS-B
Wed 01:58:33 AM 51.3781 -0.4500 25° Northeast 253 291 7,800 -2,000 Level FlightAware ADS-B
Wed 01:58:34 AM 51.3793 -0.4492 25° Northeast 253 291 7,700 -2,000 Descending FlightAware ADS-B
Wed 01:58:36 AM 51.3771 -0.4507 27° Northeast 251 289 7,700  Level FlightAware ADS-B (EGLF / FAB)
Wed 01:58:38 AM 51.3832 -0.4456 31° Northeast 255 293 7,700  Level FlightAware ADS-B
Wed 01:58:39 AM 51.3841 -0.4446 32° Northeast 257 296 7,700 -2,000 Level FlightAware ADS-B
Wed 01:58:41 AM 51.3864 -0.4423 38° Northeast 259 298 7,600 -1,500 Descending FlightAware ADS-B
Wed 01:58:43 AM 51.3883 -0.4397 42° Northeast 261 300 7,600  Level FlightAware ADS-B (EGLC / LCY)
Wed 01:58:44 AM 51.3886 -0.4384 42° Northeast 261 300 7,600 -1,200 Level FlightAware ADS-B
Wed 01:58:48 AM 51.3919 -0.4326 51° Northeast 265 305 7,500 -1,200 Descending FlightAware ADS-B
Wed 01:58:49 AM 51.3919 -0.4326 53° Northeast 267 307 7,500 -1,500 Level FlightAware ADS-B
Wed 01:58:52 AM 51.3952 -0.4244 59° Northeast 269 310 7,400 -1,500 Descending FlightAware ADS-B
Wed 01:58:53 AM 51.3940 -0.4279 63° Northeast 271 312 7,400  Level FlightAware ADS-B
Wed 01:58:54 AM 51.3952 -0.4244 58° Northeast 270 311 7,400  Level FlightAware ADS-B
Wed 01:58:56 AM 51.3973 -0.4190 66° East 272 313 7,400 -1,200 Level FlightAware ADS-B
Wed 01:58:59 AM 51.3986 -0.4115 73° East 276 318 7,300 -1,000 Descending FlightAware ADS-B
Wed 01:59:02 AM 51.3928 -0.4311 79° East 277 319 7,300  Level FlightAware ADS-B (EGLC / LCY)
Wed 01:59:03 AM 51.3995 -0.4054 78° East 278 320 7,300 -1,500 Level FlightAware ADS-B
Wed 01:59:06 AM 51.4001 -0.3994 84° East 278 320 7,200 -1,200 Descending FlightAware ADS-B
Wed 01:59:08 AM 51.4000 -0.3994 88° East 279 321 7,200  Level FlightAware ADS-B
Wed 01:59:09 AM 51.4002 -0.3932 89° East 280 322 7,200 -750 Level FlightAware ADS-B
Wed 01:59:16 AM 51.3992 -0.3787 102° East 282 325 7,100 -545 Descending FlightAware ADS-B
Wed 01:59:20 AM 51.3979 -0.3707 104° East 283 326 7,100 -857 Level FlightAware ADS-B
Wed 01:59:23 AM 51.3963 -0.3649 114° Southeast 283 326 7,000 -1,500 Descending FlightAware ADS-B
Wed 01:59:24 AM 51.3961 -0.3649 111° Southeast 283 326 7,000  Level FlightAware ADS-B
Wed 01:59:27 AM 51.3938 -0.3576 121° Southeast 283 326 7,000  Level FlightAware ADS-B
Wed 01:59:32 AM 51.3979 -0.3707 126° Southeast 283 326 7,000  Level FlightAware ADS-B (EGLC / LCY)
Wed 01:59:33 AM 51.3894 -0.3471 127° Southeast 283 326 7,000  Level FlightAware ADS-B
Wed 01:59:34 AM 51.3890 -0.3472 126° Southeast 284 327 7,000  Level FlightAware ADS-B
Wed 01:59:47 AM 51.3781 -0.3244 130° Southeast 285 328 7,000  Level FlightAware ADS-B
Wed 01:59:48 AM 51.3767 -0.3229 130° Southeast 285 328 7,000  Level FlightAware ADS-B
Wed 01:59:49 AM 51.3830 -0.3340 129° Southeast 285 328 7,000  Level FlightAware ADS-B
Wed 01:59:54 AM 51.3720 -0.3130 127° Southeast 286 329 7,000  Level FlightAware ADS-B
Wed 01:59:55 AM 51.3713 -0.3113 126° Southeast 281 323 7,000  Level FlightAware ADS-B (EHDB)
Wed 01:59:58 AM 51.3691 -0.3059 122° Southeast 286 329 7,000  Level FlightAware ADS-B
Wed 02:00:02 AM 51.3665 -0.2985 115° Southeast 288 331 7,000  Level FlightAware ADS-B
Wed 02:00:05 AM 51.3651 -0.2925 110° East 287 330 7,000  Level FlightAware ADS-B
Wed 02:00:08 AM 51.3638 -0.2845 105° East 286 329 7,000  Level FlightAware ADS-B
Wed 02:00:13 AM 51.3630 -0.2760 98° East 285 328 7,000  Level FlightAware ADS-B
Wed 02:00:16 AM 51.3627 -0.2678 92° East 283 326 7,000  Level FlightAware ADS-B
Wed 02:00:19 AM 51.3627 -0.2657 101° East 286 329 7,000 -1,000 Level FlightAware ADS-B (EGLC / LCY)
Wed 02:00:22 AM 51.3630 -0.2574 86° East 280 322 6,900 -667 Descending FlightAware ADS-B
Wed 02:00:28 AM 51.3638 -0.2451 82° East 279 321 6,900 -600 Level FlightAware ADS-B
Wed 02:00:32 AM 51.3647 -0.2370 80° East 277 319 6,800 -1,125 Descending FlightAware ADS-B
Wed 02:00:44 AM 51.3673 -0.2128 80° East 276 318 6,600 -750 Descending FlightAware ADS-B
Wed 02:00:48 AM 51.3682 -0.2046 80° East 276 318 6,600 -800 Level FlightAware ADS-B (EGLF / FAB)
Wed 02:00:59 AM 51.3707 -0.1826 80° East 277 319 6,400 -1,125 Descending FlightAware ADS-B
Wed 02:01:04 AM 51.3718 -0.1725 82° East 276 318 6,300 -1,500 Descending FlightAware ADS-B (EHDB)
Wed 02:01:07 AM 51.3723 -0.1664 81° East 278 320 6,200 -1,091 Descending FlightAware ADS-B
Wed 02:01:15 AM 51.3740 -0.1503 80° East 275 316 6,100 -545 Descending FlightAware ADS-B
Wed 02:01:29 AM 51.3768 -0.1246 81° East 266 306 6,000 -400 Descending FlightAware ADS-B (EGLF / FAB)
Wed 02:01:30 AM 51.3772 -0.1208 81° East 265 305 6,000 -923 Level FlightAware ADS-B
Wed 02:01:42 AM 51.3794 -0.0998 83° East 255 293 5,800 -923 Descending FlightAware ADS-B (EHDB)
Wed 02:01:43 AM 51.3797 -0.0961 81° East 254 292 5,800 -375 Level FlightAware ADS-B
Wed 02:01:58 AM 51.3826 -0.0672 81° East 241 277 5,700 -375 Descending FlightAware ADS-B
Wed 02:01:59 AM 51.3825 -0.0690 81° East 241 277 5,700 -750 Level FlightAware ADS-B (EGLF / FAB)
Wed 02:02:14 AM 51.3852 -0.0414 81° East 233 268 5,500 -800 Descending FlightAware ADS-B
Wed 02:02:29 AM 51.3876 -0.0160 81° East 229 264 5,300 -750 Descending FlightAware ADS-B
Wed 02:02:30 AM 51.3878 -0.0145 81° East 229 264 5,300 -400 Level FlightAware ADS-B (EHDB)
Wed 02:02:44 AM 51.3899 0.0090 81° East 228 262 5,200 -353 Descending FlightAware ADS-B
Wed 02:02:47 AM 51.3907 0.0156 80° East 227 261 5,200  Level FlightAware ADS-B (KPGA)
Wed 02:02:50 AM 51.3913 0.0189 79° East 226 260 5,200 -1,000 Level FlightAware ADS-B
Wed 02:02:53 AM 51.3919 0.0237 73° East 224 258 5,100 -857 Descending FlightAware ADS-B (EGLC / LCY)
Wed 02:02:57 AM 51.3934 0.0299 68° East 222 255 5,100  Level FlightAware ADS-B
Wed 02:03:00 AM 51.3946 0.0343 61° Northeast 218 251 5,100  Level FlightAware ADS-B
Wed 02:03:01 AM 51.3954 0.0356 59° Northeast 217 250 5,100 -2,000 Level FlightAware ADS-B
Wed 02:03:03 AM 51.3954 0.0356 52° Northeast 213 245 5,000 -1,000 Descending FlightAware ADS-B (EGLC / LCY)
Wed 02:03:07 AM 51.3992 0.0431 47° Northeast 211 243 5,000  Level FlightAware ADS-B
Wed 02:03:08 AM 51.3994 0.0441 45° Northeast 210 242 5,000  Level FlightAware ADS-B (KPGA)
Wed 02:03:11 AM 51.4025 0.0478 35° Northeast 204 235 5,000  Level FlightAware ADS-B
Wed 02:03:15 AM 51.4050 0.0500 28° Northeast 198 228 5,000 -857 Level FlightAware ADS-B
Wed 02:03:18 AM 51.4076 0.0516 19° North 192 221 4,900 -750 Descending FlightAware ADS-B
Wed 02:03:23 AM 51.4122 0.0532 10° North 186 214 4,900  Level FlightAware ADS-B
Wed 02:03:25 AM 51.4135 0.0537 North 185 213 4,900  Level FlightAware ADS-B
Wed 02:03:27 AM 51.4151 0.0540 North 183 211 4,900  Level FlightAware ADS-B
Wed 02:03:28 AM 51.4160 0.0540 North 181 208 4,900 -1,200 Level FlightAware ADS-B (EGLF / FAB)
Wed 02:03:32 AM 51.4192 0.0537 357° North 178 205 4,800 -857 Descending FlightAware ADS-B
Wed 02:03:35 AM 51.4216 0.0529 344° North 171 197 4,800  Level FlightAware ADS-B
Wed 02:03:40 AM 51.4251 0.0504 330° Northwest 164 189 4,800 -750 Level FlightAware ADS-B
Wed 02:03:43 AM 51.4270 0.0483 321° Northwest 162 186 4,700 -1,200 Descending FlightAware ADS-B
Wed 02:03:45 AM 51.4283 0.0468 315° West 161 185 4,700  Level FlightAware ADS-B
Wed 02:03:48 AM 51.4297 0.0441 310° West 160 184 4,700  Level FlightAware ADS-B
Wed 02:03:49 AM 51.4277 0.0475 308° West 160 184 4,700  Level FlightAware ADS-B (EGLF / FAB)
Wed 02:03:53 AM 51.4318 0.0393 302° West 158 182 4,700 -857 Level FlightAware ADS-B
Wed 02:03:56 AM 51.4322 0.0383 299° West 158 182 4,600 -600 Descending FlightAware ADS-B (EGLC / LCY)
Wed 02:04:03 AM 51.4354 0.0290 296° West 156 180 4,600 -462 Level FlightAware ADS-B (EHDB)
Wed 02:04:09 AM 51.4374 0.0227 298° West 162 186 4,500 -400 Descending FlightAware ADS-B
Wed 02:04:18 AM 51.4409 0.0122 299° West 162 186 4,500 -333 Level FlightAware ADS-B
Wed 02:04:27 AM 51.4440 0.0039 299° West 161 185 4,400 -400 Descending FlightAware ADS-B
Wed 02:04:33 AM 51.4465 -0.0033 300° West 161 185 4,400 -375 Level FlightAware ADS-B (EGLC / LCY)
Wed 02:04:43 AM 51.4500 -0.0125 300° West 161 185 4,300 -400 Descending FlightAware ADS-B
Wed 02:04:48 AM 51.4519 -0.0178 300° West 161 185 4,300  Level FlightAware ADS-B
Wed 02:04:58 AM 51.4557 -0.0282 301° West 161 185 4,300 -400 Level FlightAware ADS-B
Wed 02:05:03 AM 51.4576 -0.0332 301° West 161 185 4,200 -545 Descending FlightAware ADS-B (EGLC / LCY)
Wed 02:05:09 AM 51.4591 -0.0373 300° West 161 185 4,200  Level FlightAware ADS-B
Wed 02:05:11 AM 51.4606 -0.0415 299° West 161 185 4,200  Level FlightAware ADS-B
Wed 02:05:14 AM 51.4615 -0.0446 299° West 160 184 4,200  Level FlightAware ADS-B (EGLF / FAB)
Wed 02:05:16 AM 51.4623 -0.0468 296° West 161 185 4,200  Level FlightAware ADS-B
Wed 02:05:19 AM 51.4631 -0.0500 292° West 160 184 4,200 -1,000 Level FlightAware ADS-B
Wed 02:05:22 AM 51.4640 -0.0534 287° West 159 183 4,100 -1,500 Descending FlightAware ADS-B
Wed 02:05:23 AM 51.4642 -0.0556 283° West 159 183 4,100  Level FlightAware ADS-B (EGLC / LCY)
Wed 02:05:26 AM 51.4646 -0.0579 280° West 159 183 4,100  Level FlightAware ADS-B
Wed 02:05:27 AM 51.4647 -0.0591 276° West 158 182 4,100  Level FlightAware ADS-B (EHDB)
Wed 02:05:32 AM 51.4651 -0.0650 274° West 158 182 4,100  Level FlightAware ADS-B
Wed 02:05:35 AM 51.4650 -0.0638 272° West 159 183 4,100  Level FlightAware ADS-B (EGLF / FAB)
Wed 02:05:39 AM 51.4652 -0.0732 271° West 159 183 4,100 -462 Level FlightAware ADS-B
Wed 02:05:48 AM 51.4653 -0.0768 271° West 160 184 4,000 -375 Descending FlightAware ADS-B
Wed 02:05:55 AM 51.4654 -0.0922 271° West 161 185 4,000 -316 Level FlightAware ADS-B
Wed 02:06:07 AM 51.4655 -0.1066 270° West 160 184 3,900 -400 Descending FlightAware ADS-B
Wed 02:06:10 AM 51.4655 -0.1102 270° West 159 183 3,900 -706 Level FlightAware ADS-B
Wed 02:06:24 AM 51.4655 -0.1266 270° West 156 180 3,700 -1,125 Descending FlightAware ADS-B (EGLC / LCY)
Wed 02:06:26 AM 51.4655 -0.1289 270° West 155 178 3,600 -1,200 Descending FlightAware ADS-B
Wed 02:06:39 AM 51.4655 -0.1434 270° West 145 167 3,400 -800 Descending FlightAware ADS-B (EGLC / LCY)
Wed 02:06:41 AM 51.4655 -0.1456 270° West 143 165 3,400 -800 Level FlightAware ADS-B
Wed 02:06:54 AM 51.4655 -0.1589 270° West 136 157 3,200 -800 Descending FlightAware ADS-B (EGLC / LCY)
Wed 02:06:56 AM 51.4654 -0.1610 270° West 136 157 3,200 -706 Level FlightAware ADS-B
Wed 02:07:11 AM 51.4654 -0.1771 270° West 136 157 3,000 -581 Descending FlightAware ADS-B
Wed 02:07:27 AM 51.4654 -0.1924 270° West 138 159 2,900 -706 Descending FlightAware ADS-B
Wed 02:07:28 AM 51.4654 -0.1935 270° West 139 160 2,800 -1,000 Descending FlightAware ADS-B (EGLC / LCY)
Wed 02:07:33 AM 51.4654 -0.1987 270° West 140 161 2,800 -800 Level FlightAware ADS-B
Wed 02:07:43 AM 51.4654 -0.2102 270° West 141 162 2,600 -1,059 Descending FlightAware ADS-B (EGLC / LCY)
Wed 02:07:50 AM 51.4654 -0.2164 270° West 140 161 2,500 -800 Descending FlightAware ADS-B
Wed 02:07:58 AM 51.4654 -0.2247 270° West 138 159 2,400 -667 Descending FlightAware ADS-B (EGLC / LCY)
Wed 02:08:08 AM 51.4654 -0.2348 270° West 136 157 2,300 -632 Descending FlightAware ADS-B
Wed 02:08:17 AM 51.4654 -0.2439 270° West 136 157 2,200 -667 Descending FlightAware ADS-B
Wed 02:08:26 AM 51.4654 -0.2529 270° West 135 155 2,100 -706 Descending FlightAware ADS-B
Wed 02:08:34 AM 51.4654 -0.2609 270° West 133 153 2,000 -750 Descending FlightAware ADS-B (EGLC / LCY)
Wed 02:08:42 AM 51.4654 -0.2688 270° West 132 152 1,900 -667 Descending FlightAware ADS-B
Wed 02:08:52 AM 51.4653 -0.2785 270° West 131 151 1,800 -720 Descending FlightAware ADS-B
Wed 02:09:07 AM 51.4653 -0.2933 270° West 135 155 1,600 -727 Descending FlightAware ADS-B (EGLF / FAB)
Wed 02:09:25 AM 51.4652 -0.3114 270° West 136 157 1,400 -514 Descending FlightAware ADS-B
Wed 02:09:42 AM 51.4652 -0.3205 270° West 136 157 1,300 -727 Descending FlightAware ADS-B (KPGA)
Wed 02:09:58 AM 51.4652 -0.3423 270° West 128 147 1,000 -882 Descending FlightAware ADS-B (EGLF / FAB)
Wed 02:10:16 AM 51.4651 -0.3612 270° West 131 151 800 -750 Descending FlightAware ADS-B
Wed 02:10:30 AM 51.4651 -0.3730 270° West 135 155 600 -900 Descending FlightAware ADS-B
Wed 02:10:36 AM 51.4651 -0.3810 270° West 138 159 500 -857 Descending FlightAware ADS-B
Wed 02:10:44 AM 51.4651 -0.3894 270° West 143 165 400 -600 Descending FlightAware ADS-B
Wed 02:10:56 AM 51.4650 -0.3980 270° West 146 168 300 -783 Descending FlightAware ADS-B
Wed 02:11:07 AM 51.4650 -0.4143 270° West 149 171 100 -1,091 Descending FlightAware ADS-B

Login

Don't have an account? Register now (free) for customized features, flight alerts, and more!